Time;durP1;ratioP1;P1;durP2;ratioP2;P2;SDS_P1;SDS_P2;PMS_P1;PMS_P2;Temp;Humidity;BMP_temperature;BMP_pressure;BME280_temperature;BME280_humidity;BME280_pressure;Samples;Min_cycle;Max_cycle;Signal;HPM_P1;HPM_P2
2021/09/18 00:00:03;;;;;;;32.73;27.73;;;14.60;99.90;;;;;;4997852;28;20237;-75
2021/09/18 00:02:29;;;;;;;33.73;27.90;;;14.60;99.90;;;;;;5014373;28;20188;-75
2021/09/18 00:04:54;;;;;;;34.40;28.37;;;14.60;99.90;;;;;;5014395;28;20610;-75
2021/09/18 00:07:20;;;;;;;34.73;27.67;;;14.50;99.90;;;;;;5014412;28;20190;-74
2021/09/18 00:09:45;;;;;;;31.93;27.00;;;14.60;99.90;;;;;;4997824;28;20194;-75
2021/09/18 00:12:11;;;;;;;32.80;26.80;;;14.50;99.90;;;;;;5030675;28;20595;-75
2021/09/18 00:14:39;;;;;;;33.27;27.50;;;14.50;99.90;;;;;;5029428;28;20642;-75
2021/09/18 00:17:05;;;;;;;32.17;27.23;;;14.50;99.90;;;;;;5017739;28;20191;-75
2021/09/18 00:19:30;;;;;;;33.33;28.47;;;14.40;99.90;;;;;;5017418;28;20183;-75
2021/09/18 00:21:56;;;;;;;35.53;27.97;;;14.40;99.90;;;;;;5017314;28;20183;-75
2021/09/18 00:24:21;;;;;;;30.13;26.77;;;14.40;99.90;;;;;;5034016;28;20215;-75
2021/09/18 00:26:47;;;;;;;31.60;26.87;;;14.40;99.90;;;;;;5000747;28;20294;-75
2021/09/18 00:29:12;;;;;;;31.93;26.83;;;14.40;99.90;;;;;;5033432;28;20183;-75
2021/09/18 00:31:38;;;;;;;33.47;27.77;;;14.30;99.90;;;;;;5034643;28;20202;-75
2021/09/18 00:34:04;;;;;;;31.10;26.80;;;14.30;99.90;;;;;;5000710;28;20179;-75
2021/09/18 00:36:29;;;;;;;32.97;26.13;;;14.30;99.90;;;;;;5033539;28;20270;-75
2021/09/18 00:38:55;;;;;;;33.53;27.67;;;14.30;99.90;;;;;;5016939;28;20175;-75
2021/09/18 00:41:20;;;;;;;30.00;26.33;;;14.30;99.90;;;;;;5033516;28;20543;-75
2021/09/18 00:43:53;;;;;;;30.50;26.63;;;14.30;99.90;;;;;;5033010;28;20179;-76
2021/09/18 00:46:18;;;;;;;31.63;27.33;;;14.20;99.90;;;;;;5034259;28;20199;-75
2021/09/18 00:48:44;;;;;;;32.03;27.03;;;14.20;99.90;;;;;;5016879;28;20638;-75
2021/09/18 00:51:10;;;;;;;33.23;28.40;;;14.20;99.90;;;;;;5016638;28;20210;-75
2021/09/18 00:53:35;;;;;;;32.37;27.70;;;14.20;99.90;;;;;;5033118;28;20181;-75
2021/09/18 00:56:01;;;;;;;34.23;28.73;;;14.20;99.90;;;;;;5016680;28;20190;-74
2021/09/18 00:58:27;;;;;;;31.83;28.13;;;14.20;99.90;;;;;;5033214;28;20179;-75
2021/09/18 01:00:52;;;;;;;33.57;28.47;;;14.20;99.90;;;;;;5033040;28;20199;-75
2021/09/18 01:03:18;;;;;;;33.63;28.97;;;14.20;99.90;;;;;;5016617;28;20178;-75
2021/09/18 01:05:43;;;;;;;36.00;30.17;;;14.20;99.90;;;;;;5032997;28;20193;-74
2021/09/18 01:08:11;;;;;;;36.13;29.33;;;14.20;99.90;;;;;;5016562;28;20175;-75
2021/09/18 01:10:37;;;;;;;36.37;30.80;;;14.20;99.90;;;;;;5032870;28;20228;-75
2021/09/18 01:13:12;;;;;;;37.20;30.63;;;14.30;99.90;;;;;;4997560;28;20207;-75
2021/09/18 01:15:38;;;;;;;34.27;30.03;;;14.30;99.90;;;;;;5029296;28;20201;-75
2021/09/18 01:18:04;;;;;;;36.27;30.90;;;14.40;99.90;;;;;;5029734;28;20175;-75
2021/09/18 01:20:30;;;;;;;37.73;30.33;;;14.40;99.90;;;;;;4996235;28;20547;-75
2021/09/18 01:22:56;;;;;;;40.93;32.50;;;14.40;99.90;;;;;;5012810;28;20183;-74
2021/09/18 01:25:23;;;;;;;33.87;30.10;;;14.40;99.90;;;;;;5012910;28;20560;-75
2021/09/18 01:27:48;;;;;;;34.93;31.07;;;14.40;99.90;;;;;;5013936;28;20635;-75
2021/09/18 01:30:18;;;;;;;34.53;29.80;;;14.40;99.90;;;;;;5029033;28;20191;-75
2021/09/18 01:32:44;;;;;;;33.87;28.50;;;14.50;99.90;;;;;;4996259;28;20636;-75
2021/09/18 01:35:10;;;;;;;37.33;30.00;;;14.40;99.90;;;;;;4996226;28;20219;-75
2021/09/18 01:37:36;;;;;;;35.63;29.47;;;14.40;99.90;;;;;;5012728;28;20183;-75
2021/09/18 01:40:02;;;;;;;33.83;28.63;;;14.40;99.90;;;;;;5012248;28;20168;-75
2021/09/18 01:42:28;;;;;;;32.27;28.63;;;14.40;99.90;;;;;;5029206;28;20621;-74
2021/09/18 01:44:53;;;;;;;32.40;27.40;;;14.40;99.90;;;;;;5012422;28;20202;-75
2021/09/18 01:47:19;;;;;;;33.23;27.40;;;14.40;99.90;;;;;;5012346;28;20637;-75
2021/09/18 01:49:44;;;;;;;29.93;25.33;;;14.40;99.90;;;;;;5029095;28;20180;-75
2021/09/18 01:52:31;;;;;;;30.07;25.67;;;14.40;99.90;;;;;;5012977;28;20203;-75
2021/09/18 01:54:55;;;;;;;30.50;25.27;;;14.40;99.90;;;;;;5012443;28;20175;-75
2021/09/18 01:57:21;;;;;;;29.93;25.03;;;14.30;99.90;;;;;;5028519;28;20654;-75
2021/09/18 01:59:46;;;;;;;29.63;24.70;;;14.30;99.90;;;;;;5012021;28;20175;-74
2021/09/18 02:02:12;;;;;;;32.00;25.23;;;14.30;99.90;;;;;;5012227;28;20188;-75
2021/09/18 02:04:37;;;;;;;27.77;24.27;;;14.30;99.90;;;;;;5013738;28;20695;-75
2021/09/18 02:07:03;;;;;;;28.50;23.63;;;14.30;99.90;;;;;;4995583;28;20257;-75
2021/09/18 02:09:28;;;;;;;28.47;24.17;;;14.20;99.90;;;;;;5028367;28;20199;-74
2021/09/18 02:11:54;;;;;;;26.13;23.33;;;14.20;99.90;;;;;;5028370;28;20239;-75
2021/09/18 02:14:19;;;;;;;29.80;24.13;;;14.30;99.90;;;;;;5031425;28;20525;-75
2021/09/18 02:16:45;;;;;;;30.33;23.43;;;14.20;99.90;;;;;;5015291;28;20689;-75
2021/09/18 02:19:11;;;;;;;25.47;22.70;;;14.20;99.90;;;;;;5031281;28;20639;-75
2021/09/18 02:21:36;;;;;;;27.53;22.67;;;14.20;99.90;;;;;;5015289;28;20647;-75
2021/09/18 02:24:02;;;;;;;26.73;22.80;;;14.20;99.90;;;;;;5015168;28;20662;-75
2021/09/18 02:26:27;;;;;;;26.23;22.77;;;14.10;99.90;;;;;;5015664;28;20602;-75
2021/09/18 02:28:53;;;;;;;24.70;22.10;;;14.10;99.90;;;;;;5031424;28;20185;-75
2021/09/18 02:31:18;;;;;;;26.13;22.20;;;14.10;99.90;;;;;;5031363;28;20579;-75
2021/09/18 02:33:44;;;;;;;26.20;21.40;;;14.10;99.90;;;;;;4998542;28;20513;-75
2021/09/18 02:36:09;;;;;;;25.30;21.20;;;14.10;99.90;;;;;;5003854;28;20567;-75
2021/09/18 02:38:35;;;;;;;25.70;21.83;;;14.10;99.90;;;;;;5012785;28;20176;-74
2021/09/18 02:41:00;;;;;;;27.93;22.87;;;14.10;99.90;;;;;;4995167;28;20180;-75
2021/09/18 02:43:26;;;;;;;27.03;22.07;;;14.00;99.90;;;;;;5011373;28;20175;-75
2021/09/18 02:45:51;;;;;;;28.00;23.13;;;14.00;99.90;;;;;;4995099;28;20545;-75
2021/09/18 02:48:17;;;;;;;26.40;22.33;;;14.00;99.90;;;;;;5011495;28;20813;-75
2021/09/18 02:50:42;;;;;;;26.07;22.80;;;14.00;99.90;;;;;;5011048;28;20175;-75
2021/09/18 02:53:08;;;;;;;28.97;21.10;;;14.00;99.90;;;;;;5011313;28;20341;-75
2021/09/18 02:55:33;;;;;;;22.47;19.60;;;14.10;99.90;;;;;;5012578;28;20657;-75
2021/09/18 02:57:59;;;;;;;22.97;19.70;;;14.00;99.90;;;;;;5011482;28;20713;-75
2021/09/18 03:00:24;;;;;;;24.33;19.60;;;14.00;99.90;;;;;;5012437;28;20275;-75
2021/09/18 03:02:50;;;;;;;24.53;19.77;;;14.00;99.90;;;;;;4995168;28;20199;-75
2021/09/18 03:05:16;;;;;;;25.30;19.77;;;14.00;99.90;;;;;;4994813;28;20241;-75
2021/09/18 03:07:41;;;;;;;23.27;19.60;;;14.10;99.90;;;;;;5011014;28;20183;-75
2021/09/18 03:10:07;;;;;;;20.90;18.50;;;14.10;99.90;;;;;;4994537;28;20664;-74
2021/09/18 03:12:33;;;;;;;21.53;19.23;;;14.00;99.90;;;;;;5011386;28;20203;-75
2021/09/18 03:14:59;;;;;;;22.83;18.67;;;14.10;99.90;;;;;;5029374;28;20551;-75
2021/09/18 03:17:24;;;;;;;21.40;18.50;;;14.00;99.90;;;;;;5014410;28;20194;-74
2021/09/18 03:19:51;;;;;;;23.13;19.27;;;14.10;99.90;;;;;;5030559;28;20572;-75
2021/09/18 03:22:17;;;;;;;21.07;18.73;;;14.00;99.90;;;;;;5032206;28;20227;-75
2021/09/18 03:24:43;;;;;;;23.67;19.10;;;14.00;99.90;;;;;;4998170;28;20590;-75
2021/09/18 03:27:09;;;;;;;22.30;18.53;;;14.00;99.90;;;;;;5014472;28;20209;-75
2021/09/18 03:29:34;;;;;;;23.77;19.63;;;14.00;99.90;;;;;;4997748;28;20664;-75
2021/09/18 03:32:00;;;;;;;20.33;18.20;;;14.00;99.90;;;;;;5030894;28;20210;-75
2021/09/18 03:34:25;;;;;;;22.57;18.40;;;14.00;99.90;;;;;;5030814;28;20175;-75
2021/09/18 03:36:51;;;;;;;19.97;17.83;;;13.90;99.90;;;;;;5030729;28;20191;-74
2021/09/18 03:39:16;;;;;;;22.23;17.50;;;13.90;99.90;;;;;;4997679;28;20651;-75
2021/09/18 03:41:42;;;;;;;19.17;17.13;;;13.90;99.90;;;;;;5032855;23;20243;-81
2021/09/18 03:44:08;;;;;;;21.70;17.63;;;13.90;99.90;;;;;;4985477;28;20260;-81
2021/09/18 03:46:34;;;;;;;20.30;17.53;;;13.90;99.90;;;;;;5000843;28;20208;-81
2021/09/18 03:48:59;;;;;;;18.23;16.20;;;13.90;99.90;;;;;;4985106;28;20176;-81
2021/09/18 03:51:25;;;;;;;18.50;16.57;;;13.90;99.90;;;;;;4985132;28;20622;-81
2021/09/18 03:53:50;;;;;;;19.43;16.53;;;13.90;99.90;;;;;;5000926;28;20675;-81
2021/09/18 03:56:16;;;;;;;19.40;16.00;;;13.90;99.90;;;;;;4985569;28;20552;-81
2021/09/18 03:58:41;;;;;;;20.00;17.53;;;13.80;99.90;;;;;;5001272;28;20187;-81
2021/09/18 04:01:07;;;;;;;19.40;16.77;;;13.70;99.90;;;;;;4984824;28;20711;-81
2021/09/18 04:03:33;;;;;;;21.07;16.83;;;13.70;99.90;;;;;;5001073;28;20507;-81
2021/09/18 04:05:58;;;;;;;19.30;15.97;;;13.70;99.90;;;;;;4984883;28;20200;-81
2021/09/18 04:08:24;;;;;;;20.10;16.03;;;13.60;99.90;;;;;;5003000;28;20212;-81
2021/09/18 04:10:49;;;;;;;20.00;15.50;;;13.70;99.90;;;;;;4988662;28;20180;-81
2021/09/18 04:13:15;;;;;;;19.67;15.63;;;13.60;99.90;;;;;;4992782;28;20195;-81
2021/09/18 04:15:40;;;;;;;17.27;15.27;;;13.60;99.90;;;;;;5009356;28;20275;-81
2021/09/18 04:18:06;;;;;;;16.70;14.77;;;13.60;99.90;;;;;;5004738;28;20198;-81
2021/09/18 04:20:32;;;;;;;17.97;14.63;;;13.60;99.90;;;;;;5006836;28;20206;-81
2021/09/18 04:22:57;;;;;;;17.70;14.30;;;13.50;99.90;;;;;;5023911;28;20210;-81
2021/09/18 04:25:23;;;;;;;17.13;14.50;;;13.50;99.90;;;;;;5007976;28;20180;-81
2021/09/18 04:27:48;;;;;;;15.87;14.20;;;13.50;99.90;;;;;;5019943;28;20259;-82
2021/09/18 04:30:14;;;;;;;17.73;15.00;;;13.50;99.90;;;;;;5000041;28;20181;-82
2021/09/18 04:32:40;;;;;;;16.07;14.40;;;13.50;99.90;;;;;;5016689;28;20234;-83
2021/09/18 04:35:06;;;;;;;16.63;14.70;;;13.50;99.90;;;;;;5000182;28;20267;-82
2021/09/18 04:37:31;;;;;;;19.33;14.97;;;13.50;99.90;;;;;;4999773;28;20198;-82
2021/09/18 04:39:57;;;;;;;17.97;13.50;;;13.50;99.90;;;;;;4999468;28;20176;-82
2021/09/18 04:42:22;;;;;;;17.77;13.40;;;13.50;99.90;;;;;;4999406;28;20211;-83
2021/09/18 04:44:48;;;;;;;19.27;14.27;;;13.50;99.90;;;;;;5016093;28;20176;-83
2021/09/18 04:47:14;;;;;;;16.70;13.40;;;13.50;99.90;;;;;;5016069;28;20179;-82
2021/09/18 04:49:39;;;;;;;17.63;13.90;;;13.50;99.90;;;;;;5016073;28;20245;-83
2021/09/18 04:52:05;;;;;;;15.77;13.30;;;13.50;99.90;;;;;;4999109;28;20215;-82
2021/09/18 04:54:31;;;;;;;16.80;12.73;;;13.50;99.90;;;;;;4999239;28;20183;-82
2021/09/18 04:56:57;;;;;;;17.00;12.93;;;13.60;99.90;;;;;;4999775;28;20279;-82
2021/09/18 04:59:22;;;;;;;17.17;12.60;;;13.50;99.90;;;;;;4999001;28;20267;-83
2021/09/18 05:01:48;;;;;;;14.87;11.80;;;13.60;99.90;;;;;;4999088;28;20203;-82
2021/09/18 05:04:13;;;;;;;14.80;11.90;;;13.60;99.90;;;;;;5015275;28;20720;-82
2021/09/18 05:06:39;;;;;;;16.83;12.37;;;13.70;99.90;;;;;;5015433;28;20179;-82
2021/09/18 05:09:05;;;;;;;15.17;12.47;;;13.70;99.90;;;;;;4998332;28;20183;-82
2021/09/18 05:11:30;;;;;;;14.13;12.47;;;13.70;99.90;;;;;;4998892;28;20315;-82
2021/09/18 05:13:57;;;;;;;13.87;12.33;;;13.70;99.90;;;;;;5005880;28;20208;-82
2021/09/18 05:16:23;;;;;;;14.37;11.90;;;13.70;99.90;;;;;;4995874;28;20737;-82
2021/09/18 05:18:49;;;;;;;14.73;11.60;;;13.70;99.90;;;;;;4978862;28;20177;-83
2021/09/18 05:21:14;;;;;;;14.27;11.53;;;13.70;99.90;;;;;;4979380;28;20216;-82
2021/09/18 05:23:40;;;;;;;15.53;12.30;;;13.70;99.90;;;;;;4979801;28;20184;-83
2021/09/18 05:26:05;;;;;;;13.60;11.00;;;13.70;99.90;;;;;;4979316;28;20191;-82
2021/09/18 05:28:31;;;;;;;14.07;11.40;;;13.70;99.90;;;;;;4979685;28;20208;-82
2021/09/18 05:30:56;;;;;;;14.80;11.43;;;13.70;99.90;;;;;;4978801;28;20180;-82
2021/09/18 05:33:22;;;;;;;13.97;11.10;;;13.70;99.90;;;;;;4979510;28;20200;-82
2021/09/18 05:35:47;;;;;;;18.60;11.17;;;13.70;99.90;;;;;;4979501;28;20271;-82
2021/09/18 05:38:13;;;;;;;14.20;11.17;;;13.60;99.90;;;;;;4995472;28;20260;-82
2021/09/18 05:40:39;;;;;;;13.17;10.20;;;13.60;99.90;;;;;;4978962;28;20177;-82
2021/09/18 05:43:04;;;;;;;12.63;10.47;;;13.60;99.90;;;;;;4978740;28;20354;-83
2021/09/18 05:45:30;;;;;;;11.17;9.77;;;13.60;99.90;;;;;;4979033;28;20180;-82
2021/09/18 05:47:55;;;;;;;11.00;9.07;;;13.60;99.90;;;;;;4979039;28;20318;-82
2021/09/18 05:50:21;;;;;;;11.83;9.00;;;13.70;99.90;;;;;;4978987;28;20643;-82
2021/09/18 05:52:47;;;;;;;9.90;8.27;;;13.70;99.90;;;;;;4978456;28;20216;-82
2021/09/18 05:55:12;;;;;;;10.07;8.70;;;13.70;99.90;;;;;;4995349;28;20168;-82
2021/09/18 05:57:38;;;;;;;11.73;8.60;;;13.80;99.90;;;;;;4995450;28;20236;-82
2021/09/18 06:00:04;;;;;;;10.73;7.63;;;13.80;99.90;;;;;;4994801;28;20270;-83
2021/09/18 06:02:30;;;;;;;9.07;8.17;;;13.80;99.90;;;;;;4979144;28;20264;-83
2021/09/18 06:04:56;;;;;;;9.27;8.13;;;13.90;99.90;;;;;;4978686;28;20663;-82
2021/09/18 06:07:22;;;;;;;9.53;7.97;;;13.80;99.90;;;;;;4979114;28;20176;-82
2021/09/18 06:09:47;;;;;;;10.70;7.70;;;13.90;99.90;;;;;;4978700;28;20184;-82
2021/09/18 06:12:13;;;;;;;7.90;7.10;;;13.90;99.90;;;;;;4978375;28;20687;-82
2021/09/18 06:14:38;;;;;;;13.20;7.47;;;13.90;99.90;;;;;;4994177;28;20175;-82
2021/09/18 06:17:04;;;;;;;9.10;8.03;;;13.90;99.90;;;;;;4998007;28;20543;-82
2021/09/18 06:19:29;;;;;;;8.70;7.60;;;14.00;99.90;;;;;;4997790;28;20551;-82
2021/09/18 06:21:55;;;;;;;9.33;7.07;;;14.20;99.90;;;;;;4994587;28;20203;-82
2021/09/18 06:24:21;;;;;;;7.93;6.80;;;14.60;99.90;;;;;;4959579;28;20275;-82
2021/09/18 06:26:46;;;;;;;7.87;6.30;;;15.10;99.90;;;;;;4975129;28;20181;-82
2021/09/18 06:29:12;;;;;;;7.87;5.40;;;15.60;99.90;;;;;;4975251;28;20236;-82
2021/09/18 06:31:38;;;;;;;9.70;5.37;;;16.10;99.90;;;;;;4959125;28;20217;-82
2021/09/18 06:34:03;;;;;;;8.30;5.20;;;16.70;99.90;;;;;;4958984;28;20184;-83
2021/09/18 06:36:29;;;;;;;6.53;5.40;;;17.50;99.90;;;;;;4959121;28;20223;-83
2021/09/18 06:38:55;;;;;;;5.93;5.00;;;18.20;99.90;;;;;;4958797;28;20177;-83
2021/09/18 06:41:20;;;;;;;6.23;4.20;;;18.90;99.90;;;;;;4958654;28;20177;-83
2021/09/18 06:43:48;;;;;;;7.83;4.43;;;19.50;99.90;;;;;;4963618;28;20181;-82
2021/09/18 06:46:14;;;;;;;5.00;3.73;;;19.80;99.90;;;;;;4959057;28;20180;-83
2021/09/18 06:48:40;;;;;;;6.20;4.07;;;19.80;99.90;;;;;;4972513;28;20180;-82
2021/09/18 06:51:05;;;;;;;5.77;4.60;;;19.70;99.90;;;;;;4976296;28;20244;-82
2021/09/18 06:53:31;;;;;;;6.60;4.07;;;19.30;99.90;;;;;;4976860;28;20184;-81
2021/09/18 06:55:56;;;;;;;6.97;4.57;;;18.80;99.90;;;;;;4972136;28;20645;-82
2021/09/18 06:58:22;;;;;;;6.93;4.57;;;18.30;99.90;;;;;;4975411;28;20188;-82
2021/09/18 07:00:47;;;;;;;6.13;4.47;;;17.80;99.90;;;;;;4974889;28;20185;-82
2021/09/18 07:03:13;;;;;;;6.00;3.40;;;17.40;99.90;;;;;;4974848;28;20210;-83
2021/09/18 07:05:39;;;;;;;4.67;4.00;;;17.10;99.90;;;;;;4975240;28;20165;-83
2021/09/18 07:08:04;;;;;;;5.63;3.87;;;16.90;99.90;;;;;;4958795;28;20267;-83
2021/09/18 07:10:30;;;;;;;4.87;4.00;;;16.90;99.90;;;;;;4958470;28;20579;-83
2021/09/18 07:12:55;;;;;;;6.67;4.30;;;16.80;99.90;;;;;;4977206;28;20587;-83
2021/09/18 07:15:21;;;;;;;6.43;4.40;;;16.80;99.90;;;;;;5013357;28;20178;-83
2021/09/18 07:17:46;;;;;;;7.33;4.30;;;16.90;99.90;;;;;;5014321;28;20182;-82
2021/09/18 07:20:12;;;;;;;5.63;3.30;;;16.90;99.90;;;;;;5014420;28;20536;-81
2021/09/18 07:22:38;;;;;;;5.97;3.47;;;17.00;99.90;;;;;;4998173;28;20231;-82
2021/09/18 07:25:04;;;;;;;4.37;3.50;;;17.10;99.90;;;;;;4992796;28;20181;-82
2021/09/18 07:27:30;;;;;;;5.67;3.40;;;17.10;99.90;;;;;;4959129;28;20184;-79
2021/09/18 07:29:57;;;;;;;7.13;4.10;;;17.10;99.90;;;;;;4958110;28;20323;-79
2021/09/18 07:32:23;;;;;;;4.63;4.07;;;17.10;99.90;;;;;;4958241;28;20291;-79
2021/09/18 07:34:49;;;;;;;6.77;3.83;;;17.10;99.90;;;;;;4959347;28;20593;-79
2021/09/18 07:37:15;;;;;;;5.07;3.73;;;17.20;99.90;;;;;;4971380;28;20271;-80
2021/09/18 07:39:40;;;;;;;5.53;3.90;;;17.30;99.90;;;;;;4992905;28;20183;-80
2021/09/18 07:42:06;;;;;;;4.40;3.33;;;17.40;99.90;;;;;;4975379;28;20886;-79
2021/09/18 07:44:31;;;;;;;4.87;3.37;;;17.40;99.90;;;;;;4959299;28;20185;-81
2021/09/18 07:46:57;;;;;;;4.17;3.10;;;17.50;99.90;;;;;;4959111;28;20239;-82
2021/09/18 07:49:23;;;;;;;4.90;2.80;;;17.50;99.90;;;;;;4957912;28;20247;-83
2021/09/18 07:51:48;;;;;;;3.30;2.47;;;17.50;99.90;;;;;;4958294;28;20260;-81
2021/09/18 07:54:14;;;;;;;3.17;2.83;;;17.50;99.90;;;;;;4960888;28;20710;-82
2021/09/18 07:56:39;;;;;;;3.97;2.90;;;17.60;99.90;;;;;;4978757;28;20699;-82
2021/09/18 07:59:05;;;;;;;5.67;2.77;;;17.70;99.90;;;;;;4961811;28;20557;-81
2021/09/18 08:01:32;;;;;;;3.17;2.27;;;17.80;99.90;;;;;;4961600;28;20200;-82
2021/09/18 08:04:02;;;;;;;3.47;2.13;;;17.70;99.90;;;;;;4962100;28;20189;-82
2021/09/18 08:06:28;;;;;;;3.57;2.03;;;17.70;99.90;;;;;;4963115;28;20192;-80
2021/09/18 08:08:54;;;;;;;3.57;1.97;;;17.80;99.90;;;;;;4977080;28;20283;-84
2021/09/18 08:11:20;;;;;;;4.53;2.07;;;17.90;99.90;;;;;;4996836;28;20636;-82
2021/09/18 08:13:55;;;;;;;3.33;2.03;;;17.90;99.90;;;;;;4980501;28;20187;-86
2021/09/18 08:16:21;;;;;;;3.37;2.10;;;17.80;99.90;;;;;;4968859;28;20184;-83
2021/09/18 08:18:47;;;;;;;3.30;1.63;;;18.00;99.90;;;;;;4996229;28;20584;-85
2021/09/18 08:21:12;;;;;;;3.70;1.77;;;18.10;99.90;;;;;;4981210;28;20188;-83
2021/09/18 08:23:38;;;;;;;4.23;2.13;;;18.30;99.90;;;;;;4980801;28;20219;-83
2021/09/18 08:26:04;;;;;;;2.73;2.00;;;18.40;99.90;;;;;;4980842;28;20544;-83
2021/09/18 08:28:30;;;;;;;4.07;2.00;;;18.60;99.90;;;;;;4981200;28;20299;-86
2021/09/18 08:30:55;;;;;;;2.83;1.57;;;18.60;99.90;;;;;;4996725;28;20172;-85
2021/09/18 08:33:21;;;;;;;3.47;1.60;;;18.70;99.90;;;;;;4980183;28;20212;-85
2021/09/18 08:35:47;;;;;;;2.93;1.50;;;18.70;99.90;;;;;;4980237;28;20175;-85
2021/09/18 08:38:12;;;;;;;4.63;1.63;;;18.80;99.90;;;;;;4980836;28;20183;-86
2021/09/18 08:40:38;;;;;;;3.43;1.83;;;18.90;99.90;;;;;;4996451;28;20172;-86
2021/09/18 08:43:05;;;;;;;3.10;1.80;;;19.00;99.90;;;;;;4980512;28;20216;-85
2021/09/18 08:45:31;;;;;;;3.40;1.90;;;19.20;99.90;;;;;;4980319;28;20220;-85
2021/09/18 08:47:58;;;;;;;5.67;2.60;;;19.30;99.90;;;;;;4980338;28;20180;-86
2021/09/18 08:50:24;;;;;;;3.93;2.80;;;19.30;99.90;;;;;;4979637;28;20219;-85
2021/09/18 08:52:52;;;;;;;5.53;2.70;;;19.30;99.90;;;;;;4980072;28;20212;-86
2021/09/18 08:55:17;;;;;;;4.50;2.20;;;19.30;99.90;;;;;;4980190;28;20181;-86
2021/09/18 08:57:43;;;;;;;4.60;1.93;;;19.40;99.90;;;;;;4980059;28;20176;-85
2021/09/18 09:00:29;;;;;;;4.00;1.83;;;19.30;99.90;;;;;;4980313;28;20176;-85
2021/09/18 09:02:55;;;;;;;3.07;1.80;;;19.20;99.90;;;;;;4982262;28;20211;-85
2021/09/18 09:05:25;;;;;;;2.67;1.40;;;19.10;99.90;;;;;;4976150;28;20243;-85
2021/09/18 09:08:10;;;;;;;3.87;1.97;;;19.20;99.90;;;;;;4976168;28;20183;-86
2021/09/18 09:10:38;;;;;;;4.00;2.07;;;19.40;99.90;;;;;;4957095;28;20278;-83
2021/09/18 09:13:05;;;;;;;4.77;2.17;;;19.50;99.90;;;;;;4970512;28;20239;-81
2021/09/18 09:15:31;;;;;;;4.07;1.87;;;19.80;99.90;;;;;;4977079;28;20181;-83
2021/09/18 09:18:14;;;;;;;4.90;2.00;;;19.90;99.90;;;;;;4972068;28;20268;-80
2021/09/18 09:20:41;;;;;;;3.47;2.03;;;19.70;99.90;;;;;;4991693;28;20644;-82
2021/09/18 09:23:36;;;;;;;5.70;1.77;;;19.60;99.90;;;;;;4991314;28;20581;-80
2021/09/18 09:26:01;;;;;;;3.63;1.77;;;19.60;99.90;;;;;;4979166;28;20207;-81
2021/09/18 09:28:32;;;;;;;3.27;1.40;;;19.80;99.90;;;;;;4976925;28;20184;-82
2021/09/18 09:31:11;;;;;;;2.67;1.50;;;20.00;99.90;;;;;;4997516;28;20187;-80
2021/09/18 09:33:37;;;;;;;2.80;1.20;;;20.30;99.90;;;;;;4978658;28;20224;-83
2021/09/18 09:36:16;;;;;;;3.07;1.10;;;20.30;99.90;;;;;;4983718;28;20243;-84
2021/09/18 09:38:53;;;;;;;3.17;1.23;;;20.40;99.90;;;;;;4966328;28;20189;-86
2021/09/18 09:41:33;;;;;;;3.67;1.17;;;20.50;99.90;;;;;;4960959;28;20188;-85
2021/09/18 09:44:00;;;;;;;2.53;1.20;;;20.60;99.90;;;;;;5028912;23;20228;-79
2021/09/18 09:46:25;;;;;;;2.80;1.20;;;20.60;99.90;;;;;;4997787;28;20873;-77
2021/09/18 09:49:02;;;;;;;2.10;1.27;;;20.40;99.90;;;;;;4996565;28;20176;-78
2021/09/18 09:51:28;;;;;;;2.97;1.00;;;20.20;99.90;;;;;;4997950;28;20203;-81
2021/09/18 09:53:53;;;;;;;2.63;1.33;;;20.50;99.90;;;;;;4994190;28;20536;-78
2021/09/18 09:56:24;;;;;;;3.17;1.10;;;20.90;99.90;;;;;;5007739;28;20254;-80
2021/09/18 09:58:57;;;;;;;2.87;1.20;;;21.40;99.90;;;;;;4975839;28;20281;-78
2021/09/18 10:01:23;;;;;;;3.83;1.20;;;21.60;99.90;;;;;;4958757;28;20637;-76
2021/09/18 10:03:48;;;;;;;2.43;1.30;;;21.60;99.90;;;;;;4974103;28;20224;-79
2021/09/18 10:06:14;;;;;;;3.70;1.90;;;21.80;99.90;;;;;;4973725;28;20162;-77
2021/09/18 10:08:41;;;;;;;2.80;1.83;;;21.50;99.90;;;;;;4956569;28;20578;-77
2021/09/18 10:11:06;;;;;;;2.70;1.50;;;21.20;99.90;;;;;;4957054;28;20193;-77
2021/09/18 10:13:32;;;;;;;3.53;1.47;;;20.90;99.90;;;;;;4972691;28;20219;-77
2021/09/18 10:15:57;;;;;;;4.70;1.93;;;20.70;99.90;;;;;;4972302;28;20216;-77
2021/09/18 10:18:27;;;;;;;4.77;2.30;;;20.70;99.90;;;;;;4956715;28;20188;-77
2021/09/18 10:23:20;;;;;;;3.43;2.10;;;20.50;99.90;;;;;;4972913;28;20197;-77
2021/09/18 10:25:50;;;;;;;3.93;2.20;;;20.40;99.90;;;;;;4956612;28;20176;-77
2021/09/18 10:28:18;;;;;;;3.33;2.07;;;20.30;99.90;;;;;;4972683;28;20181;-77
2021/09/18 10:30:56;;;;;;;4.57;2.13;;;20.40;99.90;;;;;;4972706;28;20165;-77
2021/09/18 10:33:30;;;;;;;3.40;2.10;;;20.40;99.90;;;;;;4989039;28;20208;-77
2021/09/18 10:36:09;;;;;;;5.07;2.63;;;20.40;99.90;;;;;;4972968;28;20173;-77
2021/09/18 10:38:42;;;;;;;4.33;2.50;;;20.40;99.90;;;;;;4956540;28;20587;-76
2021/09/18 10:41:10;;;;;;;3.73;2.30;;;20.40;99.90;;;;;;4972799;28;20666;-77
2021/09/18 10:43:40;;;;;;;5.53;2.40;;;20.20;99.90;;;;;;4972540;28;20209;-77
2021/09/18 10:46:06;;;;;;;3.27;1.53;;;20.00;99.90;;;;;;4956586;28;20189;-77
2021/09/18 10:48:36;;;;;;;4.07;2.23;;;20.00;99.90;;;;;;4972557;28;20185;-77
2021/09/18 10:51:02;;;;;;;5.23;2.20;;;20.50;99.90;;;;;;4972687;28;20731;-77
2021/09/18 10:53:27;;;;;;;2.87;2.00;;;21.00;99.90;;;;;;4972248;28;20284;-77
2021/09/18 10:56:11;;;;;;;4.23;2.00;;;20.90;99.90;;;;;;4972659;28;20276;-77
2021/09/18 10:58:37;;;;;;;3.93;2.00;;;21.00;99.90;;;;;;4972063;28;20227;-77
2021/09/18 11:01:02;;;;;;;2.43;1.90;;;21.00;99.90;;;;;;4956062;28;20182;-77
2021/09/18 11:03:42;;;;;;;3.00;1.93;;;21.00;99.90;;;;;;4988483;28;20247;-77
2021/09/18 11:06:07;;;;;;;3.47;2.43;;;21.20;99.90;;;;;;4956256;28;20185;-77
2021/09/18 11:08:35;;;;;;;4.90;1.87;;;21.00;99.90;;;;;;4972088;28;20200;-77
2021/09/18 11:11:12;;;;;;;3.73;1.77;;;20.90;99.90;;;;;;4988443;28;20209;-77
2021/09/18 11:13:39;;;;;;;3.03;1.90;;;21.00;99.90;;;;;;4988248;28;20200;-77
2021/09/18 11:16:07;;;;;;;5.13;2.00;;;20.90;99.90;;;;;;4974024;28;20176;-77
2021/09/18 11:18:43;;;;;;;4.53;2.00;;;21.00;99.90;;;;;;4972696;28;20260;-77
2021/09/18 11:21:18;;;;;;;3.97;2.03;;;21.20;99.90;;;;;;4972447;28;20197;-77
2021/09/18 11:23:52;;;;;;;3.73;1.93;;;21.20;99.90;;;;;;4971892;28;20215;-77
2021/09/18 11:26:46;;;;;;;4.57;2.37;;;21.10;99.90;;;;;;4972132;28;20231;-77
2021/09/18 11:29:38;;;;;;;3.90;2.40;;;21.20;99.90;;;;;;4988611;28;20541;-77
2021/09/18 11:32:11;;;;;;;2.60;1.87;;;21.10;99.90;;;;;;4975644;28;20217;-77
2021/09/18 11:34:45;;;;;;;2.77;1.90;;;21.20;99.90;;;;;;4991981;28;20180;-77
2021/09/18 11:37:18;;;;;;;3.40;2.20;;;21.30;99.90;;;;;;4976063;28;20220;-77
2021/09/18 11:39:45;;;;;;;3.77;1.80;;;21.40;99.90;;;;;;4976520;28;20659;-77
2021/09/18 11:42:23;;;;;;;4.17;1.93;;;21.40;99.90;;;;;;4992098;28;20215;-77
2021/09/18 11:44:50;;;;;;;2.60;1.80;;;21.50;99.90;;;;;;4976834;28;20208;-77
2021/09/18 11:47:23;;;;;;;4.43;2.50;;;21.70;99.90;;;;;;4975822;28;20205;-77
2021/09/18 11:49:49;;;;;;;3.27;1.73;;;21.70;99.90;;;;;;4959586;28;20216;-77
2021/09/18 11:52:15;;;;;;;5.70;1.87;;;21.30;99.90;;;;;;4992108;28;20236;-78
2021/09/18 11:54:40;;;;;;;2.87;1.50;;;20.90;99.90;;;;;;4975889;28;20188;-77
2021/09/18 11:57:17;;;;;;;1.57;1.30;;;20.60;99.90;;;;;;4975769;28;20671;-78
2021/09/18 11:59:43;;;;;;;2.57;1.50;;;20.40;99.90;;;;;;4975147;28;20173;-76
2021/09/18 12:02:08;;;;;;;2.57;1.70;;;20.40;99.90;;;;;;4991645;28;20200;-77
2021/09/18 12:04:41;;;;;;;3.60;1.73;;;20.50;99.90;;;;;;4975567;28;20566;-77
2021/09/18 12:07:08;;;;;;;2.77;1.60;;;20.60;99.90;;;;;;4959551;28;20613;-77
2021/09/18 12:09:34;;;;;;;3.57;1.50;;;20.70;99.90;;;;;;4975256;28;20180;-77
2021/09/18 12:11:59;;;;;;;2.20;1.30;;;20.80;99.90;;;;;;4959363;28;20217;-77
2021/09/18 12:14:32;;;;;;;2.73;1.10;;;20.80;99.90;;;;;;4975087;28;20641;-77
2021/09/18 12:16:57;;;;;;;4.13;1.40;;;20.80;99.90;;;;;;4975394;28;20177;-77
2021/09/18 12:19:23;;;;;;;2.80;1.40;;;21.00;99.90;;;;;;4975098;28;20255;-77
2021/09/18 12:21:48;;;;;;;2.43;1.20;;;21.00;99.90;;;;;;4974947;28;20177;-77
2021/09/18 12:24:15;;;;;;;2.37;1.30;;;21.10;99.90;;;;;;4976167;28;20224;-78
2021/09/18 12:26:40;;;;;;;2.27;1.03;;;21.30;99.90;;;;;;4960309;28;20278;-78
2021/09/18 12:29:12;;;;;;;3.37;1.10;;;21.30;99.90;;;;;;4976735;28;20201;-78
2021/09/18 12:31:41;;;;;;;2.57;1.10;;;21.10;99.90;;;;;;4981282;28;20203;-79
2021/09/18 12:34:14;;;;;;;2.60;1.10;;;21.00;99.90;;;;;;4993112;28;20195;-79
2021/09/18 12:36:40;;;;;;;3.47;1.47;;;21.00;99.90;;;;;;4978892;28;20173;-77
2021/09/18 12:39:06;;;;;;;3.70;1.27;;;20.90;99.90;;;;;;4988593;28;20180;-81